San Pedro Sula, Honduras
Current Conditions -  °F | °C
As of 5:00 PM on Tuesday 25 Nov 2014 (Local Time) from MHLM Reporting Station
Thunderstorm Thunderstorm  
Wind Chill: 81°   Ceiling: 25000
Heat Index: 87°   Visibility: 6mi
Dew Point: 77°   Wind: 16mph
Humidity: 89%   Direction: 70°ENE
Pressure: 29.83"   Gusts: NA
Location:  15.47°N, 88.03°W
Report Text: MHLM 252300Z 07014KT 9999 TS SCT026CB BKN250 27/25 Q1010 A2983 BECMG 8000 -TSRA
Loading
Personal Weather Stations






























Interactive Weather Map New forecast layout! Learn more

10-Day Weather Forecast

Advertisements
Track Severe Weather on mobile